Telemaco Borba, Brazil
Current Conditions -  °F | °C
As of 3:00 PM on Friday 24 Oct 2014 (Local Time) from SBLO Reporting Station
Broken Clouds Broken Clouds  
Wind Chill: 86°   Ceiling: 4000
Heat Index: 88°   Visibility: 6mi
Dew Point: 66°   Wind: 10mph
Humidity: 51%   Direction: 10°N
Pressure: 29.97"   Gusts: NA
Location:  24.32°S, 50.62°W
Report Text: SBLO 241700Z 01009KT 9999 FEW030 BKN040 30/19 Q1015
Loading
Personal Weather Stations






























Interactive Weather Map
Tropical Storm Tracking
New forecast layout! Learn more

10-Day Weather Forecast

Advertisements
Track Severe Weather on mobile